TAF LFAT
METAR LFAT
LFAT 082100Z AUTO 27008KT 220V310 9999 FEW040/// OVC190/// ///CB 08/01 Q1000=
LFAT 082030Z AUTO 28009KT 250V310 9999 BKN041/// BKN047/// BKN054/// ///CB 09/01 Q1000=
LFAT 082000Z AUTO 28009KT 250V330 9999 FEW040/// BKN049/// BKN120/// ///CB 09/02 Q1000=
LFAT 081930Z AUTO 24011KT 210V280 9999 FEW026/// BKN038/// BKN045/// ///CB 08/05 Q0999=
LFAT 081900Z AUTO 22011G21KT 180V250 9999 FEW017/// BKN023/// BKN036/// ///CB 07/05 Q0999=
WC LFAT
WS LFAT
WV LFAT